sensor_id;sensor_type;location;lat;lon;timestamp;P1;durP1;ratioP1;P2;durP2;ratioP2
45909;SDS011;31622;55.416;37.840;2023-08-07T00:00:04;4.65;;;3.28;;
45909;SDS011;31622;55.416;37.840;2023-08-07T00:02:30;6.35;;;3.40;;
45909;SDS011;31622;55.416;37.840;2023-08-07T00:04:56;5.72;;;3.22;;
45909;SDS011;31622;55.416;37.840;2023-08-07T00:07:22;5.32;;;3.90;;
45909;SDS011;31622;55.416;37.840;2023-08-07T00:09:49;5.57;;;3.50;;
45909;SDS011;31622;55.416;37.840;2023-08-07T00:12:16;5.10;;;2.90;;
45909;SDS011;31622;55.416;37.840;2023-08-07T00:14:41;5.72;;;3.55;;
45909;SDS011;31622;55.416;37.840;2023-08-07T00:17:07;6.50;;;3.85;;
45909;SDS011;31622;55.416;37.840;2023-08-07T00:19:33;7.70;;;3.58;;
45909;SDS011;31622;55.416;37.840;2023-08-07T00:21:59;6.10;;;3.55;;
45909;SDS011;31622;55.416;37.840;2023-08-07T00:24:25;4.45;;;3.38;;
45909;SDS011;31622;55.416;37.840;2023-08-07T00:26:50;7.85;;;3.17;;
45909;SDS011;31622;55.416;37.840;2023-08-07T00:29:16;4.45;;;3.38;;
45909;SDS011;31622;55.416;37.840;2023-08-07T00:31:42;6.82;;;3.47;;
45909;SDS011;31622;55.416;37.840;2023-08-07T00:34:07;4.80;;;3.67;;
45909;SDS011;31622;55.416;37.840;2023-08-07T00:36:34;4.60;;;3.40;;
45909;SDS011;31622;55.416;37.840;2023-08-07T00:39:01;4.20;;;3.28;;
45909;SDS011;31622;55.416;37.840;2023-08-07T00:41:29;5.50;;;3.10;;
45909;SDS011;31622;55.416;37.840;2023-08-07T00:43:55;10.05;;;4.18;;
45909;SDS011;31622;55.416;37.840;2023-08-07T00:46:21;6.80;;;3.83;;
45909;SDS011;31622;55.416;37.840;2023-08-07T00:48:47;6.57;;;4.05;;
45909;SDS011;31622;55.416;37.840;2023-08-07T00:51:12;6.50;;;3.63;;
45909;SDS011;31622;55.416;37.840;2023-08-07T00:53:38;6.43;;;3.90;;
45909;SDS011;31622;55.416;37.840;2023-08-07T00:56:05;7.20;;;4.20;;
45909;SDS011;31622;55.416;37.840;2023-08-07T00:58:31;5.25;;;3.90;;
45909;SDS011;31622;55.416;37.840;2023-08-07T01:00:57;6.10;;;3.33;;
45909;SDS011;31622;55.416;37.840;2023-08-07T01:03:24;6.05;;;3.72;;
45909;SDS011;31622;55.416;37.840;2023-08-07T01:05:49;6.80;;;3.53;;
45909;SDS011;31622;55.416;37.840;2023-08-07T01:08:15;7.10;;;3.30;;
45909;SDS011;31622;55.416;37.840;2023-08-07T01:10:51;8.43;;;3.67;;
45909;SDS011;31622;55.416;37.840;2023-08-07T01:14:06;6.20;;;3.47;;
45909;SDS011;31622;55.416;37.840;2023-08-07T01:16:47;6.75;;;2.92;;
45909;SDS011;31622;55.416;37.840;2023-08-07T01:19:24;4.93;;;3.20;;
45909;SDS011;31622;55.416;37.840;2023-08-07T01:24:49;4.45;;;3.03;;
45909;SDS011;31622;55.416;37.840;2023-08-07T01:32:24;6.60;;;3.17;;
45909;SDS011;31622;55.416;37.840;2023-08-07T01:34:54;4.72;;;3.13;;
45909;SDS011;31622;55.416;37.840;2023-08-07T01:37:21;5.97;;;3.40;;
45909;SDS011;31622;55.416;37.840;2023-08-07T01:39:48;5.25;;;3.00;;
45909;SDS011;31622;55.416;37.840;2023-08-07T01:42:15;4.85;;;2.80;;
45909;SDS011;31622;55.416;37.840;2023-08-07T01:44:41;6.10;;;2.97;;
45909;SDS011;31622;55.416;37.840;2023-08-07T01:47:07;4.07;;;3.10;;
45909;SDS011;31622;55.416;37.840;2023-08-07T01:49:32;5.70;;;3.30;;
45909;SDS011;31622;55.416;37.840;2023-08-07T01:51:58;6.55;;;3.05;;
45909;SDS011;31622;55.416;37.840;2023-08-07T01:54:23;8.77;;;3.15;;
45909;SDS011;31622;55.416;37.840;2023-08-07T01:56:49;5.88;;;2.90;;
45909;SDS011;31622;55.416;37.840;2023-08-07T01:59:15;8.77;;;3.15;;
45909;SDS011;31622;55.416;37.840;2023-08-07T02:01:40;6.28;;;3.50;;
45909;SDS011;31622;55.416;37.840;2023-08-07T02:04:06;8.70;;;3.30;;
45909;SDS011;31622;55.416;37.840;2023-08-07T02:06:32;3.40;;;2.85;;
45909;SDS011;31622;55.416;37.840;2023-08-07T02:08:57;5.95;;;3.00;;
45909;SDS011;31622;55.416;37.840;2023-08-07T02:11:23;8.25;;;2.92;;
45909;SDS011;31622;55.416;37.840;2023-08-07T02:13:49;4.82;;;2.95;;
45909;SDS011;31622;55.416;37.840;2023-08-07T02:16:14;5.72;;;3.08;;
45909;SDS011;31622;55.416;37.840;2023-08-07T02:18:40;6.55;;;2.75;;
45909;SDS011;31622;55.416;37.840;2023-08-07T02:21:06;6.30;;;2.80;;
45909;SDS011;31622;55.416;37.840;2023-08-07T02:23:32;4.30;;;2.80;;
45909;SDS011;31622;55.416;37.840;2023-08-07T02:26:01;5.60;;;2.78;;
45909;SDS011;31622;55.416;37.840;2023-08-07T02:28:26;4.25;;;2.75;;
45909;SDS011;31622;55.416;37.840;2023-08-07T02:30:52;9.40;;;3.15;;
45909;SDS011;31622;55.416;37.840;2023-08-07T02:33:19;7.07;;;3.00;;
45909;SDS011;31622;55.416;37.840;2023-08-07T02:35:45;4.85;;;2.80;;
45909;SDS011;31622;55.416;37.840;2023-08-07T02:38:11;5.30;;;3.00;;
45909;SDS011;31622;55.416;37.840;2023-08-07T02:40:37;3.97;;;2.80;;
45909;SDS011;31622;55.416;37.840;2023-08-07T02:43:02;5.18;;;3.30;;
45909;SDS011;31622;55.416;37.840;2023-08-07T02:45:28;5.53;;;3.35;;
45909;SDS011;31622;55.416;37.840;2023-08-07T02:47:54;5.05;;;3.47;;
45909;SDS011;31622;55.416;37.840;2023-08-07T02:50:19;5.32;;;3.33;;
45909;SDS011;31622;55.416;37.840;2023-08-07T02:52:45;4.60;;;3.22;;
45909;SDS011;31622;55.416;37.840;2023-08-07T02:55:11;7.40;;;3.13;;
45909;SDS011;31622;55.416;37.840;2023-08-07T02:57:36;5.88;;;2.97;;
45909;SDS011;31622;55.416;37.840;2023-08-07T03:00:02;4.50;;;2.90;;
45909;SDS011;31622;55.416;37.840;2023-08-07T03:02:28;4.35;;;2.95;;
45909;SDS011;31622;55.416;37.840;2023-08-07T03:04:54;6.70;;;2.80;;
45909;SDS011;31622;55.416;37.840;2023-08-07T03:07:19;4.50;;;2.60;;
45909;SDS011;31622;55.416;37.840;2023-08-07T03:09:45;5.07;;;2.80;;
45909;SDS011;31622;55.416;37.840;2023-08-07T03:12:12;6.13;;;2.83;;
45909;SDS011;31622;55.416;37.840;2023-08-07T03:14:38;4.80;;;2.88;;
45909;SDS011;31622;55.416;37.840;2023-08-07T03:17:04;5.30;;;3.00;;
45909;SDS011;31622;55.416;37.840;2023-08-07T03:19:29;5.00;;;2.60;;
45909;SDS011;31622;55.416;37.840;2023-08-07T03:21:55;3.90;;;2.63;;
45909;SDS011;31622;55.416;37.840;2023-08-07T03:24:21;4.63;;;3.20;;
45909;SDS011;31622;55.416;37.840;2023-08-07T03:26:47;4.03;;;2.80;;
45909;SDS011;31622;55.416;37.840;2023-08-07T03:29:14;5.15;;;3.42;;
45909;SDS011;31622;55.416;37.840;2023-08-07T03:31:41;4.68;;;2.80;;
45909;SDS011;31622;55.416;37.840;2023-08-07T03:34:07;4.50;;;2.47;;
45909;SDS011;31622;55.416;37.840;2023-08-07T03:36:32;7.53;;;2.90;;
45909;SDS011;31622;55.416;37.840;2023-08-07T03:38:58;4.25;;;2.67;;
45909;SDS011;31622;55.416;37.840;2023-08-07T03:41:23;5.50;;;2.78;;
45909;SDS011;31622;55.416;37.840;2023-08-07T03:43:49;6.60;;;3.10;;
45909;SDS011;31622;55.416;37.840;2023-08-07T03:46:15;5.10;;;2.60;;
45909;SDS011;31622;55.416;37.840;2023-08-07T03:48:41;3.08;;;2.35;;
45909;SDS011;31622;55.416;37.840;2023-08-07T03:51:07;7.85;;;2.78;;
45909;SDS011;31622;55.416;37.840;2023-08-07T03:53:38;4.95;;;2.47;;
45909;SDS011;31622;55.416;37.840;2023-08-07T03:56:04;4.32;;;2.80;;
45909;SDS011;31622;55.416;37.840;2023-08-07T03:58:31;5.70;;;2.70;;
45909;SDS011;31622;55.416;37.840;2023-08-07T04:00:56;3.88;;;2.65;;
45909;SDS011;31622;55.416;37.840;2023-08-07T04:03:22;5.63;;;2.92;;
45909;SDS011;31622;55.416;37.840;2023-08-07T04:05:51;5.28;;;2.80;;
45909;SDS011;31622;55.416;37.840;2023-08-07T04:08:18;6.50;;;2.58;;
45909;SDS011;31622;55.416;37.840;2023-08-07T04:10:45;4.25;;;2.60;;
45909;SDS011;31622;55.416;37.840;2023-08-07T04:13:11;8.10;;;2.92;;
45909;SDS011;31622;55.416;37.840;2023-08-07T04:15:37;5.53;;;2.60;;
45909;SDS011;31622;55.416;37.840;2023-08-07T04:18:02;3.95;;;2.40;;
45909;SDS011;31622;55.416;37.840;2023-08-07T04:20:28;7.18;;;2.88;;
45909;SDS011;31622;55.416;37.840;2023-08-07T04:22:53;4.55;;;2.97;;
45909;SDS011;31622;55.416;37.840;2023-08-07T04:25:19;3.75;;;2.60;;
45909;SDS011;31622;55.416;37.840;2023-08-07T04:27:45;6.32;;;2.63;;
45909;SDS011;31622;55.416;37.840;2023-08-07T04:30:11;4.88;;;2.90;;
45909;SDS011;31622;55.416;37.840;2023-08-07T04:32:37;5.57;;;2.80;;
45909;SDS011;31622;55.416;37.840;2023-08-07T04:35:03;5.43;;;2.88;;
45909;SDS011;31622;55.416;37.840;2023-08-07T04:37:29;5.40;;;2.58;;
45909;SDS011;31622;55.416;37.840;2023-08-07T04:39:55;10.77;;;3.95;;
45909;SDS011;31622;55.416;37.840;2023-08-07T04:42:21;12.68;;;6.00;;
45909;SDS011;31622;55.416;37.840;2023-08-07T04:44:46;13.07;;;6.07;;
45909;SDS011;31622;55.416;37.840;2023-08-07T04:47:12;12.02;;;4.68;;
45909;SDS011;31622;55.416;37.840;2023-08-07T04:49:38;11.10;;;5.00;;
45909;SDS011;31622;55.416;37.840;2023-08-07T04:52:03;10.82;;;5.15;;
45909;SDS011;31622;55.416;37.840;2023-08-07T04:54:29;9.60;;;4.35;;
45909;SDS011;31622;55.416;37.840;2023-08-07T04:56:55;9.52;;;3.72;;
45909;SDS011;31622;55.416;37.840;2023-08-07T04:59:20;7.13;;;3.58;;
45909;SDS011;31622;55.416;37.840;2023-08-07T05:01:46;4.15;;;3.22;;
45909;SDS011;31622;55.416;37.840;2023-08-07T05:04:12;4.43;;;2.80;;
45909;SDS011;31622;55.416;37.840;2023-08-07T05:06:37;8.50;;;2.88;;
45909;SDS011;31622;55.416;37.840;2023-08-07T05:09:04;5.78;;;2.88;;
45909;SDS011;31622;55.416;37.840;2023-08-07T05:11:30;4.25;;;3.03;;
45909;SDS011;31622;55.416;37.840;2023-08-07T05:13:55;6.60;;;2.80;;
45909;SDS011;31622;55.416;37.840;2023-08-07T05:16:21;5.45;;;2.55;;
45909;SDS011;31622;55.416;37.840;2023-08-07T05:18:48;5.45;;;2.47;;
45909;SDS011;31622;55.416;37.840;2023-08-07T05:21:14;6.50;;;2.40;;
45909;SDS011;31622;55.416;37.840;2023-08-07T05:23:39;3.35;;;2.33;;
45909;SDS011;31622;55.416;37.840;2023-08-07T05:26:05;4.43;;;2.63;;
45909;SDS011;31622;55.416;37.840;2023-08-07T05:28:31;6.35;;;3.70;;
45909;SDS011;31622;55.416;37.840;2023-08-07T05:30:56;12.73;;;4.50;;
45909;SDS011;31622;55.416;37.840;2023-08-07T05:33:22;8.02;;;4.93;;
45909;SDS011;31622;55.416;37.840;2023-08-07T05:35:47;6.60;;;4.32;;
45909;SDS011;31622;55.416;37.840;2023-08-07T05:38:13;6.85;;;3.13;;
45909;SDS011;31622;55.416;37.840;2023-08-07T05:40:39;5.97;;;2.72;;
45909;SDS011;31622;55.416;37.840;2023-08-07T05:43:05;7.13;;;3.10;;
45909;SDS011;31622;55.416;37.840;2023-08-07T05:45:31;3.55;;;2.22;;
45909;SDS011;31622;55.416;37.840;2023-08-07T05:47:57;4.40;;;2.50;;
45909;SDS011;31622;55.416;37.840;2023-08-07T05:50:22;6.43;;;2.60;;
45909;SDS011;31622;55.416;37.840;2023-08-07T05:52:48;3.78;;;2.25;;
45909;SDS011;31622;55.416;37.840;2023-08-07T05:55:14;4.63;;;2.60;;
45909;SDS011;31622;55.416;37.840;2023-08-07T05:57:40;5.10;;;2.40;;
45909;SDS011;31622;55.416;37.840;2023-08-07T06:00:05;3.35;;;2.40;;
45909;SDS011;31622;55.416;37.840;2023-08-07T06:02:39;3.35;;;2.28;;
45909;SDS011;31622;55.416;37.840;2023-08-07T06:05:04;4.35;;;2.35;;
45909;SDS011;31622;55.416;37.840;2023-08-07T06:07:30;3.88;;;1.88;;
45909;SDS011;31622;55.416;37.840;2023-08-07T06:09:56;4.20;;;2.25;;
45909;SDS011;31622;55.416;37.840;2023-08-07T06:12:22;3.10;;;2.40;;
45909;SDS011;31622;55.416;37.840;2023-08-07T06:14:47;3.60;;;2.10;;
45909;SDS011;31622;55.416;37.840;2023-08-07T06:17:13;4.65;;;2.20;;
45909;SDS011;31622;55.416;37.840;2023-08-07T06:19:39;6.78;;;2.20;;
45909;SDS011;31622;55.416;37.840;2023-08-07T06:22:04;5.10;;;2.20;;
45909;SDS011;31622;55.416;37.840;2023-08-07T06:24:30;3.13;;;2.15;;
45909;SDS011;31622;55.416;37.840;2023-08-07T06:26:56;3.58;;;2.40;;
45909;SDS011;31622;55.416;37.840;2023-08-07T06:29:22;3.67;;;2.40;;
45909;SDS011;31622;55.416;37.840;2023-08-07T06:31:47;4.93;;;2.45;;
45909;SDS011;31622;55.416;37.840;2023-08-07T06:34:13;3.38;;;2.70;;
45909;SDS011;31622;55.416;37.840;2023-08-07T06:36:39;4.90;;;3.00;;
45909;SDS011;31622;55.416;37.840;2023-08-07T06:39:04;5.70;;;2.65;;
45909;SDS011;31622;55.416;37.840;2023-08-07T06:41:30;4.82;;;2.45;;
45909;SDS011;31622;55.416;37.840;2023-08-07T06:43:56;5.85;;;2.70;;
45909;SDS011;31622;55.416;37.840;2023-08-07T06:46:21;28.10;;;8.18;;
45909;SDS011;31622;55.416;37.840;2023-08-07T06:48:51;23.23;;;6.65;;
45909;SDS011;31622;55.416;37.840;2023-08-07T06:51:17;14.75;;;4.80;;
45909;SDS011;31622;55.416;37.840;2023-08-07T06:53:43;8.65;;;3.03;;
45909;SDS011;31622;55.416;37.840;2023-08-07T06:56:08;6.22;;;2.60;;
45909;SDS011;31622;55.416;37.840;2023-08-07T06:58:34;6.10;;;2.58;;
45909;SDS011;31622;55.416;37.840;2023-08-07T07:01:00;3.97;;;2.45;;
45909;SDS011;31622;55.416;37.840;2023-08-07T07:03:25;13.82;;;3.65;;
45909;SDS011;31622;55.416;37.840;2023-08-07T07:05:51;6.78;;;2.97;;
45909;SDS011;31622;55.416;37.840;2023-08-07T07:08:17;9.90;;;2.53;;
45909;SDS011;31622;55.416;37.840;2023-08-07T07:10:43;19.02;;;4.85;;
45909;SDS011;31622;55.416;37.840;2023-08-07T07:13:08;16.20;;;5.07;;
45909;SDS011;31622;55.416;37.840;2023-08-07T07:15:34;18.17;;;5.47;;
45909;SDS011;31622;55.416;37.840;2023-08-07T07:18:01;12.52;;;3.70;;
45909;SDS011;31622;55.416;37.840;2023-08-07T07:20:27;11.00;;;3.40;;
45909;SDS011;31622;55.416;37.840;2023-08-07T07:22:52;13.65;;;3.40;;
45909;SDS011;31622;55.416;37.840;2023-08-07T07:25:18;13.93;;;4.18;;
45909;SDS011;31622;55.416;37.840;2023-08-07T07:27:44;9.18;;;3.47;;
45909;SDS011;31622;55.416;37.840;2023-08-07T07:30:09;5.88;;;2.85;;
45909;SDS011;31622;55.416;37.840;2023-08-07T07:32:35;6.18;;;2.60;;
45909;SDS011;31622;55.416;37.840;2023-08-07T07:35:01;10.82;;;2.50;;
45909;SDS011;31622;55.416;37.840;2023-08-07T07:37:27;8.63;;;2.55;;
45909;SDS011;31622;55.416;37.840;2023-08-07T07:39:52;5.30;;;2.13;;
45909;SDS011;31622;55.416;37.840;2023-08-07T07:42:18;5.70;;;1.92;;
45909;SDS011;31622;55.416;37.840;2023-08-07T07:44:43;11.50;;;2.20;;
45909;SDS011;31622;55.416;37.840;2023-08-07T07:47:09;4.75;;;1.95;;
45909;SDS011;31622;55.416;37.840;2023-08-07T07:49:35;7.10;;;1.88;;
45909;SDS011;31622;55.416;37.840;2023-08-07T07:52:00;9.13;;;2.00;;
45909;SDS011;31622;55.416;37.840;2023-08-07T07:54:27;4.07;;;1.73;;
45909;SDS011;31622;55.416;37.840;2023-08-07T07:56:54;6.38;;;1.85;;
45909;SDS011;31622;55.416;37.840;2023-08-07T07:59:19;4.95;;;1.80;;
45909;SDS011;31622;55.416;37.840;2023-08-07T08:01:45;34.50;;;3.42;;
45909;SDS011;31622;55.416;37.840;2023-08-07T08:04:10;13.68;;;4.65;;
45909;SDS011;31622;55.416;37.840;2023-08-07T08:06:36;11.65;;;4.20;;
45909;SDS011;31622;55.416;37.840;2023-08-07T08:09:03;10.85;;;2.67;;
45909;SDS011;31622;55.416;37.840;2023-08-07T08:11:29;6.22;;;2.45;;
45909;SDS011;31622;55.416;37.840;2023-08-07T08:13:55;9.82;;;2.33;;
45909;SDS011;31622;55.416;37.840;2023-08-07T08:16:21;8.55;;;2.90;;
45909;SDS011;31622;55.416;37.840;2023-08-07T08:18:47;5.57;;;2.20;;
45909;SDS011;31622;55.416;37.840;2023-08-07T08:21:12;4.13;;;1.80;;
45909;SDS011;31622;55.416;37.840;2023-08-07T08:23:38;4.10;;;2.03;;
45909;SDS011;31622;55.416;37.840;2023-08-07T08:26:04;5.55;;;2.05;;
45909;SDS011;31622;55.416;37.840;2023-08-07T08:28:30;5.40;;;1.70;;
45909;SDS011;31622;55.416;37.840;2023-08-07T08:30:55;3.25;;;1.95;;
45909;SDS011;31622;55.416;37.840;2023-08-07T08:33:21;7.03;;;2.28;;
45909;SDS011;31622;55.416;37.840;2023-08-07T08:35:47;4.07;;;1.98;;
45909;SDS011;31622;55.416;37.840;2023-08-07T08:38:12;2.75;;;1.75;;
45909;SDS011;31622;55.416;37.840;2023-08-07T08:40:38;5.78;;;2.30;;
45909;SDS011;31622;55.416;37.840;2023-08-07T08:43:05;6.65;;;2.70;;
45909;SDS011;31622;55.416;37.840;2023-08-07T08:45:31;5.57;;;2.25;;
45909;SDS011;31622;55.416;37.840;2023-08-07T08:48:03;5.10;;;1.70;;
45909;SDS011;31622;55.416;37.840;2023-08-07T08:50:29;5.10;;;1.75;;
45909;SDS011;31622;55.416;37.840;2023-08-07T08:52:56;3.28;;;1.88;;
45909;SDS011;31622;55.416;37.840;2023-08-07T08:55:22;9.40;;;1.80;;
45909;SDS011;31622;55.416;37.840;2023-08-07T08:57:48;4.55;;;1.95;;
45909;SDS011;31622;55.416;37.840;2023-08-07T09:00:15;4.63;;;1.83;;
45909;SDS011;31622;55.416;37.840;2023-08-07T09:02:46;5.30;;;2.00;;
45909;SDS011;31622;55.416;37.840;2023-08-07T09:05:16;6.55;;;2.00;;
45909;SDS011;31622;55.416;37.840;2023-08-07T09:07:43;3.75;;;1.63;;
45909;SDS011;31622;55.416;37.840;2023-08-07T09:10:11;8.27;;;2.47;;
45909;SDS011;31622;55.416;37.840;2023-08-07T09:12:39;11.52;;;3.22;;
45909;SDS011;31622;55.416;37.840;2023-08-07T09:15:06;6.57;;;2.80;;
45909;SDS011;31622;55.416;37.840;2023-08-07T09:17:35;7.07;;;2.70;;
45909;SDS011;31622;55.416;37.840;2023-08-07T09:20:05;5.53;;;2.30;;
45909;SDS011;31622;55.416;37.840;2023-08-07T09:22:33;3.00;;;1.85;;
45909;SDS011;31622;55.416;37.840;2023-08-07T09:24:59;6.65;;;2.05;;
45909;SDS011;31622;55.416;37.840;2023-08-07T09:27:25;3.75;;;2.05;;
45909;SDS011;31622;55.416;37.840;2023-08-07T09:29:51;8.32;;;3.00;;
45909;SDS011;31622;55.416;37.840;2023-08-07T09:32:17;6.43;;;3.05;;
45909;SDS011;31622;55.416;37.840;2023-08-07T09:34:43;4.32;;;2.33;;
45909;SDS011;31622;55.416;37.840;2023-08-07T09:37:09;3.80;;;2.63;;
45909;SDS011;31622;55.416;37.840;2023-08-07T09:39:35;4.32;;;2.67;;
45909;SDS011;31622;55.416;37.840;2023-08-07T09:42:02;4.13;;;2.03;;
45909;SDS011;31622;55.416;37.840;2023-08-07T09:44:35;6.18;;;2.20;;
45909;SDS011;31622;55.416;37.840;2023-08-07T09:47:10;4.75;;;2.20;;
45909;SDS011;31622;55.416;37.840;2023-08-07T09:52:09;4.88;;;2.53;;
45909;SDS011;31622;55.416;37.840;2023-08-07T09:54:36;3.40;;;1.88;;
45909;SDS011;31622;55.416;37.840;2023-08-07T09:57:02;5.72;;;2.35;;
45909;SDS011;31622;55.416;37.840;2023-08-07T09:59:29;5.30;;;2.13;;
45909;SDS011;31622;55.416;37.840;2023-08-07T10:01:55;5.03;;;2.05;;
45909;SDS011;31622;55.416;37.840;2023-08-07T10:04:24;4.07;;;1.92;;
45909;SDS011;31622;55.416;37.840;2023-08-07T10:06:50;6.63;;;2.08;;
45909;SDS011;31622;55.416;37.840;2023-08-07T10:09:16;2.65;;;1.73;;
45909;SDS011;31622;55.416;37.840;2023-08-07T10:11:42;3.20;;;1.95;;
45909;SDS011;31622;55.416;37.840;2023-08-07T10:14:08;5.43;;;2.38;;
45909;SDS011;31622;55.416;37.840;2023-08-07T10:16:34;3.65;;;1.83;;
45909;SDS011;31622;55.416;37.840;2023-08-07T10:19:04;4.50;;;1.73;;
45909;SDS011;31622;55.416;37.840;2023-08-07T10:21:31;5.60;;;2.10;;
45909;SDS011;31622;55.416;37.840;2023-08-07T10:24:04;4.10;;;2.20;;
45909;SDS011;31622;55.416;37.840;2023-08-07T10:26:30;7.63;;;2.00;;
45909;SDS011;31622;55.416;37.840;2023-08-07T10:28:58;4.22;;;1.95;;
45909;SDS011;31622;55.416;37.840;2023-08-07T10:31:24;7.45;;;2.30;;
45909;SDS011;31622;55.416;37.840;2023-08-07T10:33:50;2.03;;;1.75;;
45909;SDS011;31622;55.416;37.840;2023-08-07T10:36:16;3.15;;;2.10;;
45909;SDS011;31622;55.416;37.840;2023-08-07T10:38:43;4.13;;;1.90;;
45909;SDS011;31622;55.416;37.840;2023-08-07T10:41:09;5.25;;;2.35;;
45909;SDS011;31622;55.416;37.840;2023-08-07T10:43:39;3.45;;;2.00;;
45909;SDS011;31622;55.416;37.840;2023-08-07T10:46:12;9.55;;;2.45;;
45909;SDS011;31622;55.416;37.840;2023-08-07T10:48:42;3.10;;;2.15;;
45909;SDS011;31622;55.416;37.840;2023-08-07T10:51:11;2.85;;;1.90;;
45909;SDS011;31622;55.416;37.840;2023-08-07T10:53:42;2.05;;;1.77;;
45909;SDS011;31622;55.416;37.840;2023-08-07T10:56:11;4.30;;;2.10;;
45909;SDS011;31622;55.416;37.840;2023-08-07T10:58:42;3.25;;;2.30;;
45909;SDS011;31622;55.416;37.840;2023-08-07T11:04:13;4.60;;;2.58;;
45909;SDS011;31622;55.416;37.840;2023-08-07T11:06:40;4.05;;;2.35;;
45909;SDS011;31622;55.416;37.840;2023-08-07T11:09:07;3.65;;;2.00;;
45909;SDS011;31622;55.416;37.840;2023-08-07T11:11:37;3.88;;;2.42;;
45909;SDS011;31622;55.416;37.840;2023-08-07T11:14:16;4.47;;;2.40;;
45909;SDS011;31622;55.416;37.840;2023-08-07T11:16:44;4.78;;;2.30;;
45909;SDS011;31622;55.416;37.840;2023-08-07T11:19:13;3.65;;;2.38;;
45909;SDS011;31622;55.416;37.840;2023-08-07T11:21:40;3.78;;;2.35;;
45909;SDS011;31622;55.416;37.840;2023-08-07T11:24:07;6.13;;;2.55;;
45909;SDS011;31622;55.416;37.840;2023-08-07T11:26:33;2.80;;;2.25;;
45909;SDS011;31622;55.416;37.840;2023-08-07T11:28:58;3.88;;;2.17;;
45909;SDS011;31622;55.416;37.840;2023-08-07T11:31:24;3.15;;;2.30;;
45909;SDS011;31622;55.416;37.840;2023-08-07T11:33:51;3.05;;;2.22;;
45909;SDS011;31622;55.416;37.840;2023-08-07T11:36:17;5.72;;;2.58;;
45909;SDS011;31622;55.416;37.840;2023-08-07T11:38:44;3.35;;;2.30;;
45909;SDS011;31622;55.416;37.840;2023-08-07T11:41:17;4.03;;;2.20;;
45909;SDS011;31622;55.416;37.840;2023-08-07T11:43:43;4.80;;;2.67;;
45909;SDS011;31622;55.416;37.840;2023-08-07T11:46:10;4.43;;;2.30;;
45909;SDS011;31622;55.416;37.840;2023-08-07T11:48:37;4.00;;;2.33;;
45909;SDS011;31622;55.416;37.840;2023-08-07T11:51:04;3.90;;;2.80;;
45909;SDS011;31622;55.416;37.840;2023-08-07T11:53:32;2.83;;;2.28;;
45909;SDS011;31622;55.416;37.840;2023-08-07T11:56:02;4.38;;;2.80;;
45909;SDS011;31622;55.416;37.840;2023-08-07T12:01:02;5.25;;;2.60;;
45909;SDS011;31622;55.416;37.840;2023-08-07T12:03:33;2.83;;;2.28;;
45909;SDS011;31622;55.416;37.840;2023-08-07T12:06:06;11.63;;;2.85;;
45909;SDS011;31622;55.416;37.840;2023-08-07T12:11:03;6.55;;;3.15;;
45909;SDS011;31622;55.416;37.840;2023-08-07T12:13:30;2.80;;;2.58;;
45909;SDS011;31622;55.416;37.840;2023-08-07T12:15:57;8.68;;;3.10;;
45909;SDS011;31622;55.416;37.840;2023-08-07T12:18:23;4.47;;;2.60;;
45909;SDS011;31622;55.416;37.840;2023-08-07T12:20:51;3.90;;;2.33;;
45909;SDS011;31622;55.416;37.840;2023-08-07T12:23:18;6.22;;;2.72;;
45909;SDS011;31622;55.416;37.840;2023-08-07T12:25:46;6.18;;;3.13;;
45909;SDS011;31622;55.416;37.840;2023-08-07T12:28:12;7.13;;;2.65;;
45909;SDS011;31622;55.416;37.840;2023-08-07T12:30:38;4.40;;;2.80;;
45909;SDS011;31622;55.416;37.840;2023-08-07T12:33:04;6.88;;;2.85;;
45909;SDS011;31622;55.416;37.840;2023-08-07T12:35:31;7.32;;;3.03;;
45909;SDS011;31622;55.416;37.840;2023-08-07T12:37:57;5.38;;;2.80;;
45909;SDS011;31622;55.416;37.840;2023-08-07T12:40:23;3.40;;;2.80;;
45909;SDS011;31622;55.416;37.840;2023-08-07T12:42:49;6.53;;;2.90;;
45909;SDS011;31622;55.416;37.840;2023-08-07T12:45:15;4.63;;;2.90;;
45909;SDS011;31622;55.416;37.840;2023-08-07T12:47:41;8.05;;;3.20;;
45909;SDS011;31622;55.416;37.840;2023-08-07T12:50:08;6.65;;;4.25;;
45909;SDS011;31622;55.416;37.840;2023-08-07T12:52:34;11.30;;;4.15;;
45909;SDS011;31622;55.416;37.840;2023-08-07T12:55:00;6.85;;;3.65;;
45909;SDS011;31622;55.416;37.840;2023-08-07T12:57:26;7.35;;;3.47;;
45909;SDS011;31622;55.416;37.840;2023-08-07T12:59:51;6.90;;;3.20;;
45909;SDS011;31622;55.416;37.840;2023-08-07T13:02:17;8.65;;;3.65;;
45909;SDS011;31622;55.416;37.840;2023-08-07T13:04:43;4.20;;;3.40;;
45909;SDS011;31622;55.416;37.840;2023-08-07T13:07:09;8.18;;;3.33;;
45909;SDS011;31622;55.416;37.840;2023-08-07T13:09:34;5.85;;;3.42;;
45909;SDS011;31622;55.416;37.840;2023-08-07T13:12:00;7.10;;;3.70;;
45909;SDS011;31622;55.416;37.840;2023-08-07T13:14:26;6.00;;;3.38;;
45909;SDS011;31622;55.416;37.840;2023-08-07T13:16:51;7.03;;;3.10;;
45909;SDS011;31622;55.416;37.840;2023-08-07T13:19:17;6.07;;;3.15;;
45909;SDS011;31622;55.416;37.840;2023-08-07T13:21:43;6.07;;;3.20;;
45909;SDS011;31622;55.416;37.840;2023-08-07T13:24:09;5.63;;;3.25;;
45909;SDS011;31622;55.416;37.840;2023-08-07T13:26:34;3.78;;;2.92;;
45909;SDS011;31622;55.416;37.840;2023-08-07T13:29:00;4.78;;;3.03;;
45909;SDS011;31622;55.416;37.840;2023-08-07T13:31:26;5.53;;;2.90;;
45909;SDS011;31622;55.416;37.840;2023-08-07T13:33:52;3.47;;;2.70;;
45909;SDS011;31622;55.416;37.840;2023-08-07T13:36:18;4.55;;;3.00;;
45909;SDS011;31622;55.416;37.840;2023-08-07T13:38:44;6.55;;;3.75;;
45909;SDS011;31622;55.416;37.840;2023-08-07T13:41:09;5.07;;;3.28;;
45909;SDS011;31622;55.416;37.840;2023-08-07T13:43:37;5.70;;;3.05;;
45909;SDS011;31622;55.416;37.840;2023-08-07T13:46:02;5.22;;;3.50;;
45909;SDS011;31622;55.416;37.840;2023-08-07T13:48:28;5.75;;;3.42;;
45909;SDS011;31622;55.416;37.840;2023-08-07T13:50:54;5.68;;;3.10;;
45909;SDS011;31622;55.416;37.840;2023-08-07T13:53:20;4.70;;;2.80;;
45909;SDS011;31622;55.416;37.840;2023-08-07T13:55:46;4.00;;;2.83;;
45909;SDS011;31622;55.416;37.840;2023-08-07T13:58:12;5.18;;;3.05;;
45909;SDS011;31622;55.416;37.840;2023-08-07T14:00:41;3.15;;;2.75;;
45909;SDS011;31622;55.416;37.840;2023-08-07T14:03:08;3.88;;;2.70;;
45909;SDS011;31622;55.416;37.840;2023-08-07T14:05:34;5.13;;;2.83;;
45909;SDS011;31622;55.416;37.840;2023-08-07T14:08:00;5.35;;;3.33;;
45909;SDS011;31622;55.416;37.840;2023-08-07T14:10:27;3.83;;;2.28;;
45909;SDS011;31622;55.416;37.840;2023-08-07T14:12:53;9.52;;;2.85;;
45909;SDS011;31622;55.416;37.840;2023-08-07T14:15:18;5.22;;;3.20;;
45909;SDS011;31622;55.416;37.840;2023-08-07T14:17:44;5.50;;;2.58;;
45909;SDS011;31622;55.416;37.840;2023-08-07T14:20:10;8.88;;;2.85;;
45909;SDS011;31622;55.416;37.840;2023-08-07T14:22:36;4.43;;;2.78;;
45909;SDS011;31622;55.416;37.840;2023-08-07T14:25:03;3.53;;;2.63;;
45909;SDS011;31622;55.416;37.840;2023-08-07T14:27:30;7.75;;;2.92;;
45909;SDS011;31622;55.416;37.840;2023-08-07T14:29:56;5.57;;;2.70;;
45909;SDS011;31622;55.416;37.840;2023-08-07T14:32:21;3.70;;;2.63;;
45909;SDS011;31622;55.416;37.840;2023-08-07T14:34:47;4.90;;;2.72;;
45909;SDS011;31622;55.416;37.840;2023-08-07T14:37:14;6.72;;;2.60;;
45909;SDS011;31622;55.416;37.840;2023-08-07T14:39:40;3.85;;;2.55;;
45909;SDS011;31622;55.416;37.840;2023-08-07T14:42:05;2.85;;;2.53;;
45909;SDS011;31622;55.416;37.840;2023-08-07T14:44:32;6.57;;;2.95;;
45909;SDS011;31622;55.416;37.840;2023-08-07T14:46:58;4.25;;;2.70;;